Time;durP1;ratioP1;P1;durP2;ratioP2;P2;SDS_P1;SDS_P2;PMS_P1;PMS_P2;Temp;Humidity;BMP_temperature;BMP_pressure;BME280_temperature;BME280_humidity;BME280_pressure;Samples;Min_cycle;Max_cycle;Signal;HPM_P1;HPM_P2
2022/03/02 00:02:27;;;;;;;2.08;1.50;;;;;;;18.77;47.28;97312.41;10412393;28;20029;-24
2022/03/02 00:07:27;;;;;;;2.53;1.55;;;;;;;18.72;47.54;97319.09;10412700;28;20037;-24
2022/03/02 00:12:28;;;;;;;2.20;1.70;;;;;;;18.73;47.56;97330.94;10412125;28;20051;-26
2022/03/02 00:17:28;;;;;;;1.88;1.30;;;;;;;18.73;47.53;97341.09;10411742;28;20049;-24
2022/03/02 00:22:29;;;;;;;1.60;1.43;;;;;;;18.71;47.40;97336.03;10403566;28;20073;-24
2022/03/02 00:27:29;;;;;;;1.93;1.50;;;;;;;18.72;47.38;97335.19;10405133;28;20036;-24
2022/03/02 00:32:29;;;;;;;2.10;1.42;;;;;;;18.71;47.40;97336.03;10403989;28;20061;-24
2022/03/02 00:37:30;;;;;;;1.60;1.50;;;;;;;18.73;47.39;97328.41;10370937;28;20046;-24
2022/03/02 00:42:31;;;;;;;1.85;1.50;;;;;;;18.71;47.30;97333.50;10382326;28;20037;-24
2022/03/02 00:47:31;;;;;;;1.75;1.33;;;;;;;18.74;47.46;97320.00;10395255;28;20046;-23
2022/03/02 00:52:32;;;;;;;2.47;1.55;;;;;;;18.77;46.95;97325.09;10369645;28;20080;-24
2022/03/02 00:57:33;;;;;;;2.53;1.50;;;;;;;18.74;47.38;97309.84;10393718;28;20221;-24
2022/03/02 01:02:33;;;;;;;1.45;1.35;;;;;;;18.72;47.23;97297.16;10409650;28;20032;-24
2022/03/02 01:07:34;;;;;;;1.60;1.50;;;;;;;18.71;47.24;97290.38;10410564;28;20040;-24
2022/03/02 01:12:35;;;;;;;2.25;1.45;;;;;;;18.68;47.41;97271.75;10381772;28;20457;-24
2022/03/02 01:17:35;;;;;;;1.48;1.38;;;;;;;18.71;47.30;97270.09;10370151;28;20060;-24
2022/03/02 01:22:37;;;;;;;2.75;1.73;;;;;;;18.72;47.17;97258.22;10390518;28;20025;-24
2022/03/02 01:27:38;;;;;;;2.17;1.73;;;;;;;18.72;47.09;97259.09;10409741;28;20568;-24
2022/03/02 01:32:38;;;;;;;4.03;1.30;;;;;;;18.71;47.13;97251.47;10409174;28;20029;-24
2022/03/02 01:37:39;;;;;;;2.00;1.43;;;;;;;18.68;47.33;97242.16;10410030;28;20042;-24
2022/03/02 01:42:44;;;;;;;1.48;1.35;;;;;;;18.71;47.61;97241.31;10408406;28;20292;-25
2022/03/02 01:47:45;;;;;;;1.95;1.50;;;;;;;18.78;47.29;97243.06;10408193;28;20036;-25
2022/03/02 01:52:45;;;;;;;1.80;1.50;;;;;;;18.76;46.98;97237.16;10408758;28;20497;-24
2022/03/02 01:57:46;;;;;;;1.93;1.47;;;;;;;18.75;47.00;97222.75;10408216;28;20093;-24
2022/03/02 02:02:47;;;;;;;1.60;1.33;;;;;;;18.74;47.13;97216.81;10407377;28;20065;-24
2022/03/02 02:07:48;;;;;;;2.33;1.45;;;;;;;18.73;46.87;97214.28;10409295;28;20301;-25
2022/03/02 02:12:50;;;;;;;2.85;1.65;;;;;;;18.70;47.66;97212.59;10407474;28;20037;-24
2022/03/02 02:17:50;;;;;;;1.75;1.65;;;;;;;18.68;47.25;97193.13;10397444;28;20088;-24
2022/03/02 02:22:51;;;;;;;2.27;1.83;;;;;;;18.72;47.18;97202.44;10367271;28;20034;-27
2022/03/02 02:27:52;;;;;;;3.53;1.40;;;;;;;18.69;47.74;97197.34;10368459;28;20026;-24
2022/03/02 02:32:52;;;;;;;1.58;1.30;;;;;;;18.68;47.56;97193.13;10378057;28;20493;-24
2022/03/02 02:37:53;;;;;;;1.40;1.30;;;;;;;18.71;47.09;97193.13;10407427;28;20043;-24
2022/03/02 02:42:53;;;;;;;1.88;1.30;;;;;;;18.75;47.41;97197.41;10404287;28;20042;-24
2022/03/02 02:47:55;;;;;;;1.90;1.40;;;;;;;18.76;46.95;97184.72;10402102;28;20401;-25
2022/03/02 02:52:57;;;;;;;1.70;1.60;;;;;;;18.73;46.94;97197.38;10407506;28;20037;-25
2022/03/02 02:57:59;;;;;;;1.30;1.00;;;;;;;18.73;46.88;97199.06;10375728;28;20034;-24
2022/03/02 03:03:00;;;;;;;4.15;1.67;;;;;;;18.71;46.94;97203.28;10379483;28;20041;-24
2022/03/02 03:08:03;;;;;;;1.20;1.10;;;;;;;18.71;47.21;97195.66;10407607;28;20026;-24
2022/03/02 03:13:03;;;;;;;2.13;1.45;;;;;;;18.71;47.12;97195.66;10406612;28;20037;-25
2022/03/02 03:18:06;;;;;;;1.60;1.40;;;;;;;18.69;47.47;97202.44;10401887;28;20085;-24
2022/03/02 03:23:08;;;;;;;1.40;1.30;;;;;;;18.69;47.22;97187.19;10373721;28;20030;-24
2022/03/02 03:28:08;;;;;;;1.38;1.13;;;;;;;18.70;46.97;97183.81;10394051;28;20030;-24
2022/03/02 03:33:09;;;;;;;1.55;1.33;;;;;;;18.70;47.05;97183.81;10400799;28;20030;-24
2022/03/02 03:38:09;;;;;;;1.60;1.30;;;;;;;18.70;47.40;97179.63;10373095;28;20041;-24
2022/03/02 03:43:10;;;;;;;1.40;1.30;;;;;;;18.77;47.41;97185.56;10401742;28;20376;-24
2022/03/02 03:48:10;;;;;;;1.50;1.30;;;;;;;18.76;46.91;97177.09;10399939;28;20034;-24
2022/03/02 03:53:12;;;;;;;1.52;1.30;;;;;;;18.72;46.84;97172.00;10372588;28;20176;-24
2022/03/02 03:58:13;;;;;;;1.30;1.20;;;;;;;18.71;46.95;97170.31;10403418;28;20409;-24
2022/03/02 04:03:14;;;;;;;1.25;1.15;;;;;;;18.71;46.89;97165.22;10412653;28;20033;-25
2022/03/02 04:08:15;;;;;;;1.50;1.27;;;;;;;18.70;46.89;97168.59;10413065;28;20120;-24
2022/03/02 04:13:15;;;;;;;1.58;1.20;;;;;;;18.69;46.96;97159.31;10411749;28;20524;-25
2022/03/02 04:18:16;;;;;;;1.50;1.20;;;;;;;18.67;46.92;97143.25;10411925;28;20061;-24
2022/03/02 04:23:16;;;;;;;3.10;1.30;;;;;;;18.68;46.97;97135.63;10412122;28;20025;-25
2022/03/02 04:28:17;;;;;;;1.37;1.20;;;;;;;18.64;46.93;97127.97;10410985;28;20036;-24
2022/03/02 04:33:17;;;;;;;1.33;1.00;;;;;;;18.66;47.22;97127.16;10411153;28;20117;-25
2022/03/02 04:38:17;;;;;;;1.50;1.23;;;;;;;18.74;47.37;97129.75;10411291;28;20095;-24
2022/03/02 04:43:18;;;;;;;1.40;1.17;;;;;;;18.76;46.74;97126.38;10410905;28;20124;-24
2022/03/02 04:48:19;;;;;;;1.27;1.17;;;;;;;18.72;47.01;97116.19;10410529;28;20492;-24
2022/03/02 04:53:23;;;;;;;1.20;1.10;;;;;;;18.74;46.66;97112.00;10401109;28;20035;-25
2022/03/02 04:58:23;;;;;;;1.15;1.05;;;;;;;18.74;46.94;97114.53;10399903;28;20456;-24
2022/03/02 05:03:24;;;;;;;1.43;1.20;;;;;;;18.72;47.27;97114.53;10408221;28;20033;-24
2022/03/02 05:08:25;;;;;;;1.63;1.17;;;;;;;18.74;46.99;97112.00;10409264;28;20284;-24
2022/03/02 05:13:26;;;;;;;1.48;1.20;;;;;;;18.71;47.25;97100.16;10391068;28;20038;-24
2022/03/02 05:18:26;;;;;;;1.27;1.17;;;;;;;18.71;47.18;97091.69;10407227;28;20040;-26
2022/03/02 05:23:27;;;;;;;1.10;1.00;;;;;;;18.73;47.06;97092.53;10409414;28;20453;-24
2022/03/02 05:28:27;;;;;;;1.25;1.15;;;;;;;18.73;47.13;97093.38;10409626;28;20032;-24
2022/03/02 05:33:28;;;;;;;3.43;1.50;;;;;;;18.75;47.71;97106.09;10404299;28;20160;-25
2022/03/02 05:38:28;;;;;;;3.90;2.97;;;;;;;18.54;43.89;97113.56;10401092;28;20521;-25
2022/03/02 05:43:29;;;;;;;9.27;2.83;;;;;;;18.48;43.85;97098.31;10390902;28;20037;-24
2022/03/02 05:48:29;;;;;;;6.10;2.37;;;;;;;18.53;43.84;97115.25;10402265;28;20103;-24
2022/03/02 05:53:29;;;;;;;5.73;2.17;;;;;;;18.63;45.30;97106.00;10409115;28;20044;-24
2022/03/02 05:58:30;;;;;;;4.45;2.55;;;;;;;18.66;45.95;97116.19;10386150;28;20811;-24
2022/03/02 06:03:31;;;;;;;3.30;2.03;;;;;;;18.67;45.93;97115.34;10383941;28;20121;-24
2022/03/02 06:08:32;;;;;;;4.63;1.90;;;;;;;18.69;46.47;97126.34;10409348;28;20405;-25
2022/03/02 06:13:34;;;;;;;1.95;1.58;;;;;;;18.68;46.44;97130.53;10408247;28;20036;-24
2022/03/02 06:18:34;;;;;;;2.83;1.92;;;;;;;18.68;46.43;97140.69;10407810;28;20033;-24
2022/03/02 06:23:35;;;;;;;4.75;2.22;;;;;;;18.70;46.42;97143.25;10408093;28;20033;-24
2022/03/02 06:28:36;;;;;;;2.05;1.80;;;;;;;18.69;46.46;97139.00;10373313;28;20442;-24
2022/03/02 06:33:36;;;;;;;2.63;1.73;;;;;;;18.71;46.71;97140.72;10384695;28;20095;-24
2022/03/02 06:38:36;;;;;;;3.47;1.80;;;;;;;18.76;46.43;97133.97;10408781;28;20762;-24
2022/03/02 06:43:50;;;;;;;2.00;1.55;;;;;;;18.73;46.41;97135.63;10407066;28;20037;-24
2022/03/02 06:48:57;;;;;;;2.72;1.73;;;;;;;18.71;46.69;97140.72;10407943;28;20041;-24
2022/03/02 06:54:01;;;;;;;2.97;1.73;;;;;;;18.71;46.65;97139.88;10415769;28;20041;-23
2022/03/02 06:59:02;;;;;;;3.08;1.48;;;;;;;18.68;47.35;97135.63;10389873;28;20608;-25
2022/03/02 07:04:02;;;;;;;4.05;1.70;;;;;;;18.70;46.93;97133.09;10395032;28;20037;-24
2022/03/02 07:09:03;;;;;;;2.33;1.80;;;;;;;18.68;47.07;97124.66;10415359;28;20026;-24
2022/03/02 07:14:03;;;;;;;1.85;1.48;;;;;;;18.68;47.18;97128.00;10414997;28;20029;-24
2022/03/02 07:19:04;;;;;;;3.78;2.03;;;;;;;18.66;46.60;97132.22;10393832;28;20033;-24
2022/03/02 07:24:18;;;;;;;3.30;2.40;;;;;;;18.67;46.84;97117.88;10374273;28;20202;-24
2022/03/02 07:29:20;;;;;;;2.20;1.50;;;;;;;18.67;46.73;97118.72;10402827;28;20290;-24
2022/03/02 07:34:21;;;;;;;3.35;1.48;;;;;;;18.74;46.79;97104.41;10413951;28;20033;-24
2022/03/02 07:39:22;;;;;;;2.42;1.40;;;;;;;18.75;46.82;97111.16;10413874;28;20029;-24
2022/03/02 07:44:22;;;;;;;1.67;1.25;;;;;;;18.72;46.64;97116.19;10413257;28;20038;-25
2022/03/02 07:49:22;;;;;;;1.40;1.30;;;;;;;18.69;46.77;97117.06;10413237;28;20047;-25
2022/03/02 07:54:28;;;;;;;5.80;1.65;;;;;;;18.68;46.97;97117.03;10413314;28;20025;-24
2022/03/02 07:59:36;;;;;;;2.72;1.50;;;;;;;18.69;47.16;97136.47;10412972;28;20513;-24
2022/03/02 08:04:38;;;;;;;1.90;1.63;;;;;;;18.65;47.39;97133.06;10411400;28;20033;-24
2022/03/02 08:09:39;;;;;;;2.80;1.38;;;;;;;18.65;47.30;97132.22;10413077;28;20516;-25
2022/03/02 08:14:42;;;;;;;2.55;1.35;;;;;;;18.67;46.99;97120.41;10412324;28;20049;-24
2022/03/02 08:19:42;;;;;;;2.45;1.60;;;;;;;18.66;47.39;97116.19;10412375;28;20048;-24
2022/03/02 08:24:50;;;;;;;2.30;1.52;;;;;;;18.65;47.60;97106.84;10412142;28;20057;-25
2022/03/02 08:29:56;;;;;;;2.17;1.60;;;;;;;18.68;47.56;97104.34;10371090;28;20528;-24
2022/03/02 08:34:57;;;;;;;1.57;1.30;;;;;;;18.75;47.71;97099.31;10399631;28;20029;-24
2022/03/02 08:39:58;;;;;;;2.05;1.60;;;;;;;18.70;46.86;97103.53;10410756;28;20733;-24
2022/03/02 08:44:59;;;;;;;1.40;1.10;;;;;;;18.68;47.43;97094.22;10411516;28;20040;-24
2022/03/02 08:50:00;;;;;;;1.70;1.30;;;;;;;18.67;47.18;97087.44;10410851;28;20032;-24
2022/03/02 08:55:05;;;;;;;1.90;1.75;;;;;;;18.65;47.35;97087.41;10411244;28;20040;-24
2022/03/02 09:00:07;;;;;;;2.35;1.60;;;;;;;18.65;47.12;97095.03;10409967;28;20493;-24
2022/03/02 09:05:08;;;;;;;1.52;1.30;;;;;;;18.65;47.56;97099.25;10410522;28;20037;-24
2022/03/02 09:10:09;;;;;;;2.08;1.10;;;;;;;18.64;47.71;97087.41;10410686;28;20037;-24
2022/03/02 09:15:09;;;;;;;1.20;1.10;;;;;;;18.66;47.59;97080.69;10409764;28;20560;-24
2022/03/02 09:20:10;;;;;;;1.65;1.42;;;;;;;18.62;47.73;97072.19;10409819;28;20045;-24
2022/03/02 09:25:11;;;;;;;2.08;1.55;;;;;;;18.68;47.57;97073.91;10424156;28;20068;-25
2022/03/02 09:30:12;;;;;;;1.87;1.30;;;;;;;18.75;47.63;97070.56;10416355;28;20037;-24
2022/03/02 09:35:14;;;;;;;2.42;2.08;;;;;;;18.73;47.18;97062.09;10421747;28;20960;-24
2022/03/02 09:40:26;;;;;;;2.65;1.20;;;;;;;18.73;47.71;97070.56;10418514;28;20045;-26
2022/03/02 09:45:29;;;;;;;1.52;1.08;;;;;;;18.68;47.93;97079.00;10418826;28;20124;-24
2022/03/02 09:50:33;;;;;;;1.98;1.60;;;;;;;18.68;48.06;97073.91;10419915;28;20054;-24
2022/03/02 09:55:35;;;;;;;1.60;1.40;;;;;;;18.68;47.84;97073.91;10418498;28;20037;-24
2022/03/02 10:00:36;;;;;;;2.08;1.52;;;;;;;18.62;48.12;97071.34;10420415;28;20050;-24
2022/03/02 10:05:42;;;;;;;1.67;1.40;;;;;;;18.64;48.13;97072.19;10386511;28;20038;-27
2022/03/02 10:10:42;;;;;;;1.73;1.17;;;;;;;18.63;48.13;97066.28;10386142;28;20815;-24
2022/03/02 10:15:44;;;;;;;1.90;1.60;;;;;;;18.63;48.15;97055.28;10420515;28;20037;-24
2022/03/02 10:20:49;;;;;;;2.65;1.42;;;;;;;18.65;48.10;97054.47;10382635;28;20061;-24
2022/03/02 10:26:01;;;;;;;2.63;1.45;;;;;;;18.70;47.83;97059.56;10378192;28;20061;-24
2022/03/02 10:31:23;;;;;;;1.63;1.52;;;;;;;18.77;48.14;97048.59;10416857;28;20025;-24
2022/03/02 10:36:27;;;;;;;3.83;1.42;;;;;;;18.72;47.93;97053.66;10376924;28;20046;-27
2022/03/02 10:41:32;;;;;;;2.58;1.30;;;;;;;18.70;48.10;97046.88;10375656;28;20129;-24
2022/03/02 10:46:38;;;;;;;1.50;1.40;;;;;;;18.66;48.17;97040.94;10375452;28;20531;-24
2022/03/02 10:51:39;;;;;;;1.85;1.35;;;;;;;18.70;48.19;97041.78;10374932;28;20049;-24
2022/03/02 10:56:40;;;;;;;1.63;1.10;;;;;;;18.68;48.32;97035.88;10375902;28;20038;-25
2022/03/02 11:01:40;;;;;;;1.20;1.05;;;;;;;18.72;48.00;97027.41;10375475;28;20041;-24
2022/03/02 11:06:43;;;;;;;1.80;1.13;;;;;;;18.66;48.23;97024.88;10415698;28;20520;-24
2022/03/02 11:11:44;;;;;;;2.40;1.08;;;;;;;18.69;48.18;97019.81;10408774;28;20405;-24
2022/03/02 11:16:46;;;;;;;1.70;1.13;;;;;;;18.67;48.08;97014.72;10376209;28;20052;-24
2022/03/02 11:21:49;;;;;;;2.25;1.73;;;;;;;18.72;48.04;97022.34;10414711;28;20037;-25
2022/03/02 11:26:49;;;;;;;1.85;1.27;;;;;;;18.81;48.01;97014.78;10414156;28;20398;-24
2022/03/02 11:31:54;;;;;;;1.70;1.30;;;;;;;18.80;47.75;97018.16;10412076;28;20041;-24
2022/03/02 11:37:07;;;;;;;1.50;1.27;;;;;;;18.74;47.87;97018.16;10373887;28;20614;-24
2022/03/02 11:42:07;;;;;;;1.63;1.20;;;;;;;18.73;47.99;97003.75;10373425;28;20037;-23
2022/03/02 11:47:10;;;;;;;2.50;1.20;;;;;;;18.71;48.09;96991.09;10377768;28;20033;-24
2022/03/02 11:52:14;;;;;;;1.75;1.23;;;;;;;18.74;48.13;96992.78;10413693;28;20465;-24
2022/03/02 11:57:16;;;;;;;1.77;1.08;;;;;;;18.72;48.04;96991.91;10413706;28;20401;-24
2022/03/02 12:02:21;;;;;;;1.50;1.40;;;;;;;18.70;48.04;96986.00;10412367;28;20033;-25
2022/03/02 12:07:22;;;;;;;1.48;1.17;;;;;;;18.71;48.21;96987.69;10413128;28;20524;-26
2022/03/02 12:12:22;;;;;;;1.23;1.13;;;;;;;18.71;48.28;96977.53;10412310;28;20168;-25
2022/03/02 12:17:30;;;;;;;1.40;1.30;;;;;;;18.72;48.08;96974.16;10412480;28;20045;-24
2022/03/02 12:22:42;;;;;;;1.50;1.23;;;;;;;18.73;48.15;96968.25;10412078;28;20320;-24
2022/03/02 12:27:57;;;;;;;1.75;1.50;;;;;;;18.81;48.13;96961.50;10412027;28;20128;-24
2022/03/02 12:32:58;;;;;;;1.05;0.95;;;;;;;18.75;48.20;96958.97;10411571;28;20165;-24
2022/03/02 12:38:09;;;;;;;1.20;1.10;;;;;;;18.65;48.31;96953.00;10412399;28;20041;-24
2022/03/02 12:43:13;;;;;;;1.67;1.20;;;;;;;18.68;48.13;96947.94;10387723;28;20490;-25
2022/03/02 12:48:16;;;;;;;1.85;1.10;;;;;;;18.64;48.18;96942.84;10370772;28;20026;-24
2022/03/02 12:53:17;;;;;;;2.15;1.63;;;;;;;18.66;48.56;96946.28;10370425;28;20048;-24
2022/03/02 12:58:18;;;;;;;1.48;1.02;;;;;;;18.67;48.57;96942.88;10396694;28;20034;-24
2022/03/02 13:03:28;;;;;;;1.40;1.30;;;;;;;18.64;48.37;96935.25;10410324;28;20033;-24
2022/03/02 13:08:29;;;;;;;1.85;1.00;;;;;;;18.55;48.51;96923.41;10410695;28;20545;-26
2022/03/02 13:13:38;;;;;;;1.63;1.10;;;;;;;18.61;48.55;96928.50;10380896;28;20040;-24
2022/03/02 13:18:39;;;;;;;1.48;1.20;;;;;;;18.66;48.44;96925.97;10386364;28;20493;-24
2022/03/02 13:23:39;;;;;;;1.60;0.95;;;;;;;18.71;48.50;96914.13;10410026;28;20033;-24
2022/03/02 13:29:01;;;;;;;1.65;1.10;;;;;;;18.77;48.29;96924.31;10386374;28;20030;-24
2022/03/02 13:34:01;;;;;;;1.58;1.20;;;;;;;18.69;48.46;96913.28;10388596;28;20113;-24
2022/03/02 13:39:09;;;;;;;1.25;1.15;;;;;;;18.65;48.49;96917.50;10409307;28;20425;-25
2022/03/02 13:44:20;;;;;;;1.40;1.05;;;;;;;18.62;48.63;96911.59;10408744;28;20048;-24
2022/03/02 13:49:25;;;;;;;1.70;1.27;;;;;;;18.63;48.66;96910.75;10386225;28;20534;-24
2022/03/02 13:54:26;;;;;;;1.50;1.38;;;;;;;18.63;48.37;96911.59;10371287;28;20413;-24
2022/03/02 13:59:27;;;;;;;1.38;1.27;;;;;;;18.63;48.57;96913.28;10407995;28;20039;-24
2022/03/02 14:04:27;;;;;;;2.25;1.00;;;;;;;18.62;48.47;96911.59;10385382;28;20565;-25
2022/03/02 14:09:28;;;;;;;1.10;1.00;;;;;;;18.65;48.18;96909.91;10367872;28;20030;-24
2022/03/02 14:14:32;;;;;;;1.40;1.10;;;;;;;18.65;48.32;96901.44;10400282;28;20033;-24
2022/03/02 14:19:40;;;;;;;1.42;1.10;;;;;;;18.71;48.47;96901.47;10383831;28;20297;-24
2022/03/02 14:24:44;;;;;;;1.52;1.27;;;;;;;18.77;48.16;96907.38;10367636;28;20042;-25
2022/03/02 14:29:57;;;;;;;0.95;0.85;;;;;;;18.73;48.42;96904.84;10402041;28;20034;-24
2022/03/02 14:35:00;;;;;;;1.17;1.00;;;;;;;18.69;48.44;96903.16;10408165;28;20489;-24
2022/03/02 14:40:05;;;;;;;1.25;1.15;;;;;;;18.68;48.44;96899.75;10407284;28;20124;-24
2022/03/02 14:45:10;;;;;;;1.15;1.05;;;;;;;18.67;48.55;96894.69;10408525;28;20135;-25
2022/03/02 14:50:21;;;;;;;0.80;0.80;;;;;;;18.67;48.51;96887.09;10407319;28;20037;-24
2022/03/02 14:55:32;;;;;;;1.50;1.10;;;;;;;18.69;48.65;96893.00;10407470;28;20029;-25
2022/03/02 15:00:33;;;;;;;2.10;1.67;;;;;;;18.62;48.50;96871.88;10408061;28;20091;-24
2022/03/02 15:05:48;;;;;;;1.17;1.00;;;;;;;18.59;48.65;96865.94;10407064;28;20485;-24
2022/03/02 15:10:48;;;;;;;2.03;1.13;;;;;;;18.57;48.51;96870.19;10409832;28;20022;-24
2022/03/02 15:15:54;;;;;;;1.93;1.20;;;;;;;18.69;48.42;96873.56;10414522;28;20501;-24
2022/03/02 15:20:55;;;;;;;1.20;0.93;;;;;;;18.77;48.47;96876.94;10379193;28;20058;-24
2022/03/02 15:25:56;;;;;;;1.33;1.00;;;;;;;18.77;48.37;96878.66;10384445;28;20103;-28
2022/03/02 15:30:59;;;;;;;1.58;1.05;;;;;;;18.70;48.41;96877.81;10414447;28;20036;-24
2022/03/02 15:36:09;;;;;;;1.00;0.90;;;;;;;18.71;48.44;96876.97;10414099;28;20073;-24
2022/03/02 15:41:23;;;;;;;1.45;1.35;;;;;;;18.67;48.54;96869.34;10413313;28;20516;-24
2022/03/02 15:46:23;;;;;;;1.98;1.20;;;;;;;18.65;48.74;96873.53;10414007;28;20040;-25
2022/03/02 15:51:24;;;;;;;1.30;1.00;;;;;;;18.65;48.54;96876.06;10412940;28;20025;-24
2022/03/02 15:56:24;;;;;;;1.38;1.27;;;;;;;18.64;48.71;96869.31;10404065;28;20036;-24
2022/03/02 16:01:25;;;;;;;0.77;0.77;;;;;;;18.64;48.63;96871.84;10372042;28;20042;-24
2022/03/02 16:06:26;;;;;;;1.25;0.90;;;;;;;18.64;48.61;96865.09;10373034;28;20083;-24
2022/03/02 16:11:34;;;;;;;1.67;1.25;;;;;;;18.63;48.82;96872.69;10372555;28;20478;-25
2022/03/02 16:16:39;;;;;;;1.08;0.98;;;;;;;18.69;48.58;96871.03;10371885;28;20508;-24
2022/03/02 16:21:50;;;;;;;0.73;0.73;;;;;;;18.73;48.42;96879.47;10370969;28;20084;-25
2022/03/02 16:26:51;;;;;;;1.23;1.10;;;;;;;18.71;48.43;96876.97;10387787;28;20510;-24
2022/03/02 16:31:51;;;;;;;1.23;1.13;;;;;;;18.62;48.48;96863.41;10411767;28;20033;-24
2022/03/02 16:36:52;;;;;;;1.17;0.97;;;;;;;18.60;48.48;96867.63;10412196;28;20422;-24
2022/03/02 16:41:52;;;;;;;1.23;1.10;;;;;;;18.64;48.62;96876.91;10403080;28;20080;-24
2022/03/02 16:46:53;;;;;;;1.10;1.00;;;;;;;18.66;48.55;96877.78;10374291;28;20040;-24
2022/03/02 16:51:54;;;;;;;1.25;1.00;;;;;;;18.68;48.58;96876.09;10410903;28;20032;-24
2022/03/02 16:56:55;;;;;;;1.13;1.02;;;;;;;18.60;48.96;96867.63;10410588;28;20033;-25
2022/03/02 17:01:55;;;;;;;1.10;1.00;;;;;;;18.68;48.23;96878.63;10410413;28;20405;-25
2022/03/02 17:06:57;;;;;;;2.53;1.17;;;;;;;18.70;48.26;96880.34;10410734;28;20509;-25
2022/03/02 17:11:57;;;;;;;1.20;1.10;;;;;;;18.74;48.25;96883.72;10410033;28;20108;-24
2022/03/02 17:16:58;;;;;;;2.03;1.50;;;;;;;18.81;48.33;96872.72;10410214;28;20120;-24
2022/03/02 17:21:59;;;;;;;1.70;1.40;;;;;;;18.79;48.12;96874.41;10410287;28;20327;-25
2022/03/02 17:26:59;;;;;;;1.73;1.50;;;;;;;18.72;48.15;96877.78;10409476;28;20033;-24
2022/03/02 17:32:00;;;;;;;1.23;1.13;;;;;;;18.70;48.47;96876.94;10409961;28;20048;-24
2022/03/02 17:37:00;;;;;;;1.17;1.08;;;;;;;18.70;48.20;96879.47;10409708;28;20280;-24
2022/03/02 17:42:01;;;;;;;1.25;1.15;;;;;;;18.68;48.26;96882.00;10409417;28;20038;-24
2022/03/02 17:47:03;;;;;;;1.20;1.00;;;;;;;18.70;48.28;96879.47;10409212;28;20041;-24
2022/03/02 17:52:07;;;;;;;1.15;1.00;;;;;;;18.68;48.27;96868.50;10381576;28;20292;-25
2022/03/02 17:57:08;;;;;;;0.98;0.90;;;;;;;18.67;48.29;96864.28;10368676;28;20053;-25
2022/03/02 18:02:11;;;;;;;1.55;1.30;;;;;;;18.69;48.37;96862.56;10368355;28;20058;-24
2022/03/02 18:07:11;;;;;;;1.30;1.20;;;;;;;18.66;48.35;96860.88;10367956;28;20038;-24
2022/03/02 18:12:12;;;;;;;1.33;1.08;;;;;;;18.75;48.13;96852.44;10367997;28;20038;-24
2022/03/02 18:17:12;;;;;;;1.73;1.23;;;;;;;18.80;48.33;96850.75;10367578;28;20143;-24
2022/03/02 18:22:13;;;;;;;1.47;1.30;;;;;;;18.76;48.16;96854.13;10367961;28;20029;-24
2022/03/02 18:27:14;;;;;;;1.30;1.20;;;;;;;18.73;48.30;96849.91;10368069;28;20041;-25
2022/03/02 18:32:14;;;;;;;1.13;1.02;;;;;;;18.69;48.29;96842.28;10367148;28;20041;-24
2022/03/02 18:37:15;;;;;;;1.85;1.05;;;;;;;18.68;48.16;96830.44;10368181;28;20112;-24
2022/03/02 18:42:16;;;;;;;1.90;1.20;;;;;;;18.65;48.57;96841.44;10367779;28;20042;-25
2022/03/02 18:47:16;;;;;;;1.75;1.55;;;;;;;18.65;48.26;96841.44;10372036;28;20064;-24
2022/03/02 18:52:18;;;;;;;1.20;1.10;;;;;;;18.64;48.58;96838.88;10374702;28;20034;-24
2022/03/02 18:57:19;;;;;;;1.73;1.30;;;;;;;18.63;48.40;96838.06;10374900;28;20045;-25
2022/03/02 19:02:22;;;;;;;2.47;1.30;;;;;;;18.63;48.49;96829.59;10374562;28;20057;-24
2022/03/02 19:07:23;;;;;;;1.30;1.17;;;;;;;18.65;48.38;96830.44;10374510;28;20030;-24
2022/03/02 19:12:23;;;;;;;1.05;0.95;;;;;;;18.76;48.16;96838.91;10374299;28;20036;-24
2022/03/02 19:17:24;;;;;;;1.30;1.20;;;;;;;18.77;48.09;96840.59;10374532;28;20033;-24
2022/03/02 19:22:28;;;;;;;1.85;1.67;;;;;;;18.74;48.17;96840.63;10374145;28;20033;-24
2022/03/02 19:27:28;;;;;;;1.25;1.05;;;;;;;18.69;48.17;96847.34;10373925;28;20041;-24
2022/03/02 19:32:29;;;;;;;1.48;1.10;;;;;;;18.69;48.46;96857.50;10373420;28;20038;-24
2022/03/02 19:37:29;;;;;;;1.35;1.25;;;;;;;18.70;48.44;96854.13;10373314;28;20045;-24
2022/03/02 19:42:32;;;;;;;1.20;1.10;;;;;;;18.71;48.19;96860.88;10373458;28;20065;-24
2022/03/02 19:47:32;;;;;;;1.38;1.17;;;;;;;18.69;48.40;96865.09;10373488;28;20037;-25
2022/03/02 19:52:33;;;;;;;1.30;1.20;;;;;;;18.68;48.09;96871.03;10373007;28;20437;-24
2022/03/02 19:57:35;;;;;;;1.60;1.33;;;;;;;18.65;48.32;96866.78;10371409;28;20037;-25
2022/03/02 20:02:35;;;;;;;1.63;1.33;;;;;;;18.62;48.08;96868.47;10372489;28;20029;-24
2022/03/02 20:07:36;;;;;;;1.35;1.17;;;;;;;18.70;48.19;96856.66;10372959;28;20636;-24
2022/03/02 20:12:37;;;;;;;1.30;1.13;;;;;;;18.77;48.31;96863.44;10372171;28;20133;-24
2022/03/02 20:17:37;;;;;;;1.48;1.30;;;;;;;18.73;48.07;96872.72;10397795;28;20049;-24
2022/03/02 20:22:38;;;;;;;1.50;1.40;;;;;;;18.69;48.32;96880.31;10411833;28;20036;-24
2022/03/02 20:28:11;;;;;;;1.40;1.30;;;;;;;18.66;48.44;96878.63;10412494;28;20283;-24
2022/03/02 20:33:12;;;;;;;1.10;1.02;;;;;;;18.70;48.10;96884.56;10411397;28;20284;-24
2022/03/02 20:38:16;;;;;;;1.33;1.10;;;;;;;18.69;48.36;96877.78;10401339;28;20552;-24
2022/03/02 20:43:18;;;;;;;1.52;1.42;;;;;;;18.70;47.93;96879.47;10370663;28;20041;-24
2022/03/02 20:48:19;;;;;;;1.30;1.15;;;;;;;18.67;48.26;96879.47;10371829;28;20040;-25
2022/03/02 20:53:21;;;;;;;1.50;1.40;;;;;;;18.68;48.23;96886.25;10382450;28;20037;-24
2022/03/02 20:58:22;;;;;;;1.23;1.13;;;;;;;18.67;48.29;96882.84;10412065;28;20109;-23
2022/03/02 21:03:24;;;;;;;1.45;1.33;;;;;;;18.71;47.95;96889.63;10394520;28;20037;-24
2022/03/02 21:08:24;;;;;;;1.48;1.35;;;;;;;18.80;47.88;96889.66;10382222;28;20025;-23
2022/03/02 21:13:25;;;;;;;1.92;1.45;;;;;;;18.80;47.73;96886.25;10410533;28;20508;-24
2022/03/02 21:18:26;;;;;;;1.50;1.30;;;;;;;18.76;47.88;96890.47;10388184;28;20038;-24
2022/03/02 21:23:26;;;;;;;1.55;1.45;;;;;;;18.72;48.07;96883.72;10370230;28;20033;-24
2022/03/02 21:28:27;;;;;;;1.70;1.27;;;;;;;18.69;47.84;96883.72;10369379;28;20028;-25
2022/03/02 21:33:28;;;;;;;1.65;1.42;;;;;;;18.68;48.14;96871.03;10369528;28;20318;-24
2022/03/02 21:38:28;;;;;;;1.75;1.30;;;;;;;18.67;48.19;96875.25;10381240;28;20116;-24
2022/03/02 21:43:29;;;;;;;1.73;1.30;;;;;;;18.66;48.17;96872.72;10408596;28;20033;-25
2022/03/02 21:48:30;;;;;;;1.52;1.40;;;;;;;18.65;48.29;96865.94;10409418;28;20288;-24
2022/03/02 21:53:30;;;;;;;1.95;1.58;;;;;;;18.65;48.18;96863.41;10395889;28;20509;-26
2022/03/02 21:58:31;;;;;;;1.40;1.27;;;;;;;18.64;48.23;96861.72;10368060;28;20057;-24
2022/03/02 22:03:31;;;;;;;1.35;1.25;;;;;;;18.66;48.28;96855.81;10389473;28;20292;-24
2022/03/02 22:08:31;;;;;;;1.77;1.50;;;;;;;18.73;47.99;96856.66;10408525;28;20075;-25
2022/03/02 22:13:32;;;;;;;1.70;1.30;;;;;;;18.72;48.03;96862.56;10409134;28;20497;-25
2022/03/02 22:18:33;;;;;;;1.40;1.30;;;;;;;18.62;48.25;96854.13;10408819;28;20068;-24
2022/03/02 22:23:34;;;;;;;1.75;1.33;;;;;;;18.64;48.44;96854.09;10414806;28;20515;-25
2022/03/02 22:28:35;;;;;;;1.85;1.55;;;;;;;18.64;48.07;96843.97;10417046;28;20021;-24
2022/03/02 22:33:35;;;;;;;1.95;1.75;;;;;;;18.65;48.05;96843.09;10416151;28;20037;-24
2022/03/02 22:38:36;;;;;;;1.98;1.48;;;;;;;18.61;48.20;96843.97;10416300;28;20041;-24
2022/03/02 22:43:36;;;;;;;1.42;1.33;;;;;;;18.61;48.07;96834.69;10416152;28;20076;-24
2022/03/02 22:48:37;;;;;;;1.98;1.40;;;;;;;18.60;48.43;96837.19;10394776;28;20428;-24
2022/03/02 22:53:37;;;;;;;1.70;1.40;;;;;;;18.62;48.24;96840.56;10389826;28;20034;-24
2022/03/02 22:58:37;;;;;;;1.67;1.57;;;;;;;18.61;47.71;96833.81;10415853;28;20038;-24
2022/03/02 23:03:38;;;;;;;1.43;1.27;;;;;;;18.68;47.95;96835.53;10414913;28;20029;-25
2022/03/02 23:14:00;;;;;;;0.90;0.90;;;;;;;18.71;47.80;96836.38;10415429;28;20037;-24
2022/03/02 23:19:02;;;;;;;1.70;1.23;;;;;;;18.64;48.14;96838.88;10414463;28;20045;-24
2022/03/02 23:24:03;;;;;;;2.10;1.40;;;;;;;18.65;48.21;96825.34;10396760;28;20069;-25
2022/03/02 23:29:04;;;;;;;1.55;1.25;;;;;;;18.65;48.08;96827.88;10373583;28;20088;-27